Time;durP1;ratioP1;P1;durP2;ratioP2;P2;SDS_P1;SDS_P2;PMS_P1;PMS_P2;Temp;Humidity;BMP_temperature;BMP_pressure;BME280_temperature;BME280_humidity;BME280_pressure;Samples;Min_cycle;Max_cycle;Signal;HPM_P1;HPM_P2
2021/01/26 00:00:48;;;;;;;31.30;18.30;;;2.60;91.30;;;;;;5054441;28;20040;-91
2021/01/26 00:03:14;;;;;;;33.93;19.67;;;2.60;91.40;;;;;;5054582;28;20478;-90
2021/01/26 00:05:39;;;;;;;31.73;18.97;;;2.60;91.00;;;;;;5051875;28;20020;-90
2021/01/26 00:08:05;;;;;;;30.17;17.67;;;2.70;91.10;;;;;;5054487;28;20126;-90
2021/01/26 00:10:31;;;;;;;32.53;19.17;;;2.70;91.30;;;;;;5054598;28;20474;-90
2021/01/26 00:12:57;;;;;;;31.63;18.83;;;2.70;91.30;;;;;;5054341;28;20023;-90
2021/01/26 00:15:23;;;;;;;31.43;17.17;;;2.60;91.10;;;;;;5054386;28;20492;-90
2021/01/26 00:17:48;;;;;;;29.47;16.77;;;2.70;91.20;;;;;;5054437;28;20032;-90
2021/01/26 00:20:15;;;;;;;30.40;18.37;;;2.70;91.30;;;;;;5054253;28;20165;-90
2021/01/26 00:22:42;;;;;;;30.47;18.47;;;2.70;91.10;;;;;;5054249;28;20025;-91
2021/01/26 00:25:11;;;;;;;30.27;18.60;;;2.70;91.40;;;;;;5054339;28;20041;-91
2021/01/26 00:27:37;;;;;;;33.13;19.15;;;2.70;91.40;;;;;;5054331;28;20021;-90
2021/01/26 00:30:08;;;;;;;31.67;19.60;;;2.70;91.20;;;;;;5058527;28;20044;-90
2021/01/26 00:32:34;;;;;;;32.27;19.63;;;2.70;91.30;;;;;;5074565;28;20059;-90
2021/01/26 00:35:00;;;;;;;32.90;20.27;;;2.70;91.10;;;;;;5054311;28;20059;-90
2021/01/26 00:37:25;;;;;;;31.53;18.83;;;2.80;91.20;;;;;;5054064;28;20482;-91
2021/01/26 00:39:51;;;;;;;31.23;18.50;;;2.70;91.10;;;;;;5054300;28;20050;-90
2021/01/26 00:42:16;;;;;;;29.67;17.43;;;2.80;91.10;;;;;;5054304;28;20115;-90
2021/01/26 00:44:42;;;;;;;31.63;19.00;;;2.70;91.40;;;;;;5054297;28;20481;-90
2021/01/26 00:47:08;;;;;;;30.00;17.97;;;2.70;91.60;;;;;;5054104;28;20029;-90
2021/01/26 00:49:33;;;;;;;31.87;17.97;;;2.70;91.20;;;;;;5056222;28;20478;-91
2021/01/26 00:51:59;;;;;;;31.53;17.83;;;2.80;91.40;;;;;;5057925;28;20468;-90
2021/01/26 00:54:24;;;;;;;31.13;18.87;;;2.70;91.40;;;;;;5057817;28;20035;-91
2021/01/26 00:56:50;;;;;;;31.43;18.97;;;2.60;91.80;;;;;;5057677;28;20032;-90
2021/01/26 00:59:15;;;;;;;30.37;18.60;;;2.60;91.50;;;;;;5057963;28;20028;-90
2021/01/26 01:01:41;;;;;;;30.27;17.17;;;2.60;91.60;;;;;;5057725;28;20370;-90
2021/01/26 01:04:06;;;;;;;29.50;17.27;;;2.60;91.80;;;;;;5057793;28;20457;-91
2021/01/26 01:06:32;;;;;;;29.33;16.90;;;2.70;91.50;;;;;;5057182;28;20024;-90
2021/01/26 01:08:57;;;;;;;29.57;17.03;;;2.70;91.60;;;;;;5057555;28;20070;-90
2021/01/26 01:11:23;;;;;;;28.10;17.10;;;2.70;91.40;;;;;;5057570;28;20170;-90
2021/01/26 01:13:48;;;;;;;26.60;14.87;;;2.70;91.40;;;;;;5057494;28;20032;-90
2021/01/26 01:16:15;;;;;;;25.57;13.90;;;2.70;91.50;;;;;;5057214;28;20025;-91
2021/01/26 01:18:41;;;;;;;24.40;13.40;;;2.70;91.50;;;;;;5075266;28;20485;-90
2021/01/26 01:21:06;;;;;;;22.20;12.83;;;2.70;91.50;;;;;;5057236;28;20056;-91
2021/01/26 01:23:32;;;;;;;22.97;12.63;;;2.60;91.80;;;;;;5057524;28;20059;-90
2021/01/26 01:26:00;;;;;;;20.67;12.00;;;2.60;91.70;;;;;;5057236;28;20029;-90
2021/01/26 01:28:26;;;;;;;19.60;10.43;;;2.70;91.60;;;;;;5057072;28;20028;-90
2021/01/26 01:30:56;;;;;;;21.27;11.97;;;2.60;91.60;;;;;;5056781;28;20033;-91
2021/01/26 01:33:23;;;;;;;19.57;10.83;;;2.60;91.50;;;;;;5074255;28;20032;-91
2021/01/26 01:35:48;;;;;;;19.50;10.17;;;2.60;91.60;;;;;;5077017;28;20134;-89
2021/01/26 01:38:14;;;;;;;21.93;11.03;;;2.50;91.50;;;;;;5077255;28;20062;-90
2021/01/26 01:40:40;;;;;;;18.67;10.30;;;2.50;91.80;;;;;;5077285;28;20063;-90
2021/01/26 01:43:06;;;;;;;21.23;10.70;;;2.50;91.70;;;;;;5076980;28;20078;-91
2021/01/26 01:45:31;;;;;;;19.37;10.30;;;2.50;91.80;;;;;;5077006;28;20062;-90
2021/01/26 01:48:25;;;;;;;19.27;10.27;;;2.40;91.90;;;;;;5077051;28;20488;-90
2021/01/26 01:51:00;;;;;;;18.50;10.13;;;2.40;91.90;;;;;;5076822;28;20020;-91
2021/01/26 01:53:42;;;;;;;19.47;9.87;;;2.40;92.10;;;;;;5076665;28;20154;-90
2021/01/26 01:56:16;;;;;;;20.17;10.90;;;2.40;91.90;;;;;;5076434;28;20600;-91
2021/01/26 01:58:46;;;;;;;19.73;10.63;;;2.40;92.00;;;;;;5076283;28;20028;-90
2021/01/26 02:01:17;;;;;;;22.60;11.67;;;2.40;92.00;;;;;;5076139;28;20024;-90
2021/01/26 02:04:06;;;;;;;22.73;10.97;;;2.40;92.00;;;;;;5076450;28;20081;-90
2021/01/26 02:06:34;;;;;;;21.30;9.95;;;2.50;92.70;;;;;;5076356;28;20028;-90
2021/01/26 02:09:11;;;;;;;20.73;10.60;;;2.50;92.20;;;;;;5076699;28;20477;-91
2021/01/26 02:11:37;;;;;;;20.70;10.10;;;2.50;92.00;;;;;;5093363;28;20100;-91
2021/01/26 02:14:03;;;;;;;21.60;9.97;;;2.60;92.30;;;;;;5077587;28;20450;-90
2021/01/26 02:16:29;;;;;;;20.67;9.70;;;2.60;92.10;;;;;;5076145;28;20043;-90
2021/01/26 02:19:16;;;;;;;18.60;9.33;;;2.70;92.10;;;;;;5072856;28;20028;-90
2021/01/26 02:22:19;;;;;;;19.13;9.07;;;2.70;92.00;;;;;;5072498;28;20385;-90
2021/01/26 02:25:12;;;;;;;19.97;8.10;;;2.70;91.90;;;;;;5072839;28;20597;-90
2021/01/26 02:28:28;;;;;;;15.93;7.33;;;2.80;92.30;;;;;;5075817;28;20028;-91
2021/01/26 02:31:08;;;;;;;15.77;6.40;;;2.80;92.20;;;;;;5063057;28;20049;-90
2021/01/26 02:33:48;;;;;;;13.70;5.37;;;2.80;92.20;;;;;;5055331;28;20032;-90
2021/01/26 02:36:43;;;;;;;13.32;4.53;;;2.90;92.80;;;;;;5055945;28;20032;-90
2021/01/26 02:39:34;;;;;;;12.50;4.53;;;2.90;92.40;;;;;;5055617;28;20394;-89
2021/01/26 02:42:18;;;;;;;13.20;4.37;;;3.00;92.20;;;;;;5055949;28;20029;-90
2021/01/26 02:45:14;;;;;;;10.67;4.00;;;3.00;92.10;;;;;;5055946;28;20064;-90
2021/01/26 02:48:09;;;;;;;9.40;3.77;;;3.00;92.50;;;;;;5055131;28;20061;-91
2021/01/26 02:50:47;;;;;;;12.20;3.73;;;3.00;92.30;;;;;;5025560;28;20033;-90
2021/01/26 02:53:22;;;;;;;10.13;3.17;;;3.00;92.50;;;;;;5055337;28;20017;-89
2021/01/26 02:56:12;;;;;;;10.77;3.27;;;3.00;92.40;;;;;;5055046;28;20028;-90
2021/01/26 02:58:59;;;;;;;8.77;2.97;;;3.00;92.60;;;;;;5055597;28;20028;-90
2021/01/26 03:01:33;;;;;;;9.77;3.83;;;3.10;92.30;;;;;;5055011;28;20028;-90
2021/01/26 03:04:04;;;;;;;10.13;3.00;;;3.00;92.40;;;;;;5073207;28;20028;-90
2021/01/26 03:06:33;;;;;;;8.90;3.07;;;3.10;92.20;;;;;;5054968;28;20119;-89
2021/01/26 03:09:08;;;;;;;6.28;2.85;;;3.10;92.90;;;;;;5054858;28;20020;-89
2021/01/26 03:11:38;;;;;;;10.60;2.90;;;3.00;92.40;;;;;;5054268;28;20025;-89
2021/01/26 03:14:08;;;;;;;10.47;3.50;;;3.10;92.50;;;;;;5055136;28;20025;-90
2021/01/26 03:16:36;;;;;;;11.40;3.00;;;3.10;92.30;;;;;;5054603;28;20493;-90
2021/01/26 03:19:15;;;;;;;8.83;3.40;;;3.00;92.50;;;;;;5055052;28;20393;-90
2021/01/26 03:21:44;;;;;;;10.20;2.58;;;3.10;92.40;;;;;;5073172;28;20067;-90
2021/01/26 03:24:16;;;;;;;12.07;2.90;;;3.10;92.40;;;;;;5054914;28;20181;-89
2021/01/26 03:26:43;;;;;;;9.70;2.70;;;3.10;92.90;;;;;;5073189;28;20382;-90
2021/01/26 03:29:11;;;;;;;7.93;2.70;;;3.10;92.50;;;;;;5055533;28;20031;-89
2021/01/26 03:31:52;;;;;;;9.13;2.80;;;3.10;92.60;;;;;;5060413;28;20174;-91
2021/01/26 03:34:21;;;;;;;9.73;2.50;;;3.10;92.40;;;;;;5054891;28;20508;-90
2021/01/26 03:36:47;;;;;;;9.60;2.58;;;3.10;92.40;;;;;;5054744;28;20040;-90
2021/01/26 03:39:13;;;;;;;8.90;2.20;;;3.10;93.40;;;;;;5054483;28;20401;-91
2021/01/26 03:41:39;;;;;;;10.83;2.70;;;3.10;92.80;;;;;;5054847;28;20021;-89
2021/01/26 03:44:08;;;;;;;9.57;2.20;;;3.10;92.30;;;;;;5054545;28;20024;-90
2021/01/26 03:46:46;;;;;;;8.38;2.85;;;3.20;92.30;;;;;;5054053;28;20032;-90
2021/01/26 03:49:32;;;;;;;6.83;2.90;;;3.20;92.30;;;;;;5054136;28;20060;-90
2021/01/26 03:52:21;;;;;;;8.53;2.70;;;3.20;92.80;;;;;;5054472;28;20054;-91
2021/01/26 03:55:12;;;;;;;11.57;3.10;;;3.20;92.60;;;;;;5053995;28;20162;-90
2021/01/26 03:58:15;;;;;;;8.67;2.67;;;3.20;92.40;;;;;;5054394;28;20040;-90
2021/01/26 04:00:57;;;;;;;9.70;3.20;;;3.20;93.00;;;;;;5054249;28;20074;-90
2021/01/26 04:03:31;;;;;;;10.07;3.30;;;3.20;92.50;;;;;;5054597;28;20032;-89
2021/01/26 04:06:34;;;;;;;15.87;4.60;;;3.20;92.50;;;;;;5054056;28;20086;-90
2021/01/26 04:09:10;;;;;;;9.83;2.80;;;3.20;92.80;;;;;;5054278;28;20024;-90
2021/01/26 04:11:52;;;;;;;10.33;3.00;;;3.30;92.40;;;;;;5054458;28;20024;-90
2021/01/26 04:14:27;;;;;;;9.70;3.30;;;3.30;92.40;;;;;;5053968;28;20029;-90
2021/01/26 04:17:08;;;;;;;11.27;3.10;;;3.30;92.40;;;;;;5053727;28;20139;-90
2021/01/26 04:19:45;;;;;;;9.57;3.30;;;3.30;92.50;;;;;;5054047;28;20028;-89
2021/01/26 04:22:13;;;;;;;11.97;2.80;;;3.30;92.30;;;;;;5054050;28;20473;-91
2021/01/26 04:24:38;;;;;;;12.00;3.37;;;3.40;92.30;;;;;;5057766;28;20076;-90
2021/01/26 04:27:15;;;;;;;9.63;3.10;;;3.40;92.30;;;;;;5058258;28;20048;-90
2021/01/26 04:29:40;;;;;;;10.33;2.90;;;3.40;92.30;;;;;;5058337;28;20035;-89
2021/01/26 04:32:06;;;;;;;8.03;2.27;;;3.40;92.50;;;;;;5071392;28;20059;-90
2021/01/26 04:34:32;;;;;;;10.60;2.57;;;3.40;92.30;;;;;;5078484;28;20028;-89
2021/01/26 04:36:57;;;;;;;9.33;2.17;;;3.40;92.70;;;;;;5078070;28;20472;-90
2021/01/26 04:39:23;;;;;;;5.60;1.97;;;3.40;92.40;;;;;;5078064;28;20028;-90
2021/01/26 04:41:56;;;;;;;10.13;2.40;;;3.50;92.60;;;;;;5078050;28;20028;-90
2021/01/26 04:44:54;;;;;;;14.10;2.40;;;3.50;92.80;;;;;;5078352;28;20028;-90
2021/01/26 04:47:25;;;;;;;6.80;2.00;;;3.50;92.40;;;;;;5094729;28;20062;-90
2021/01/26 04:50:16;;;;;;;7.53;2.23;;;3.50;92.30;;;;;;5078166;28;20557;-91
2021/01/26 04:52:48;;;;;;;10.33;2.77;;;3.50;92.40;;;;;;5078015;28;20026;-90
2021/01/26 04:55:16;;;;;;;8.67;2.50;;;3.50;92.40;;;;;;5110574;28;20072;-90
2021/01/26 04:58:05;;;;;;;5.43;2.03;;;3.50;92.40;;;;;;5077824;28;20027;-91
2021/01/26 05:00:52;;;;;;;9.05;2.70;;;3.40;92.80;;;;;;5077652;28;20030;-90
2021/01/26 05:03:30;;;;;;;7.73;2.40;;;3.40;92.50;;;;;;5077344;28;20028;-90
2021/01/26 05:06:03;;;;;;;9.60;2.70;;;3.40;92.40;;;;;;5077609;28;20035;-90
2021/01/26 05:08:34;;;;;;;7.60;2.90;;;3.40;92.50;;;;;;5077589;28;20035;-90
2021/01/26 05:11:09;;;;;;;5.90;2.50;;;3.40;92.50;;;;;;5095990;28;20024;-91
2021/01/26 05:13:43;;;;;;;10.10;2.80;;;3.30;92.60;;;;;;5078036;28;20035;-90
2021/01/26 05:16:21;;;;;;;9.13;3.77;;;3.30;92.50;;;;;;5077360;28;20421;-90
2021/01/26 05:19:14;;;;;;;9.37;2.90;;;3.30;92.50;;;;;;5077482;28;20024;-90
2021/01/26 05:21:48;;;;;;;7.53;2.93;;;3.30;92.60;;;;;;5077997;28;20020;-89
2021/01/26 05:24:31;;;;;;;9.57;3.10;;;3.20;92.70;;;;;;5077736;28;20049;-90
2021/01/26 05:26:58;;;;;;;9.63;2.80;;;3.20;92.70;;;;;;5077631;28;20024;-90
2021/01/26 05:29:23;;;;;;;10.87;3.90;;;3.20;93.10;;;;;;5095808;28;20020;-90
2021/01/26 05:31:58;;;;;;;12.63;4.80;;;3.20;92.90;;;;;;5066354;28;20216;-89
2021/01/26 05:34:28;;;;;;;12.30;4.67;;;3.20;92.70;;;;;;5057485;28;20032;-89
2021/01/26 05:36:54;;;;;;;14.20;5.07;;;3.20;92.70;;;;;;5060576;28;20119;-90
2021/01/26 05:39:36;;;;;;;13.77;5.47;;;3.10;92.60;;;;;;5060301;28;20508;-90
2021/01/26 05:42:02;;;;;;;12.60;4.90;;;3.10;92.70;;;;;;5061363;28;20024;-89
2021/01/26 05:44:28;;;;;;;13.03;5.27;;;3.10;92.60;;;;;;5066075;28;20474;-90
2021/01/26 05:46:54;;;;;;;14.37;5.80;;;3.10;92.60;;;;;;5077580;28;20068;-89
2021/01/26 05:49:38;;;;;;;13.40;6.17;;;3.00;92.60;;;;;;5058207;28;20052;-90
2021/01/26 05:52:09;;;;;;;14.00;5.63;;;3.00;92.60;;;;;;5076124;28;20069;-90
2021/01/26 05:54:37;;;;;;;14.43;5.50;;;2.90;92.70;;;;;;5058292;28;20048;-89
2021/01/26 05:57:04;;;;;;;15.13;6.17;;;2.90;92.70;;;;;;5061159;28;20028;-87
2021/01/26 05:59:35;;;;;;;15.57;6.17;;;2.90;92.70;;;;;;5063033;28;20029;-86
2021/01/26 06:02:15;;;;;;;14.93;6.30;;;2.90;92.70;;;;;;5079677;28;20062;-86
2021/01/26 06:04:42;;;;;;;15.43;7.00;;;2.90;92.70;;;;;;5059931;28;20028;-86
2021/01/26 06:07:23;;;;;;;15.23;6.80;;;2.90;92.60;;;;;;5079931;28;20024;-86
2021/01/26 06:09:49;;;;;;;15.87;7.87;;;2.90;92.50;;;;;;5061892;28;20099;-86
2021/01/26 06:12:21;;;;;;;17.57;8.97;;;2.90;92.50;;;;;;5082996;28;20103;-87
2021/01/26 06:15:03;;;;;;;15.37;7.03;;;2.90;92.40;;;;;;5077918;28;20052;-87
2021/01/26 06:17:31;;;;;;;15.73;7.20;;;2.90;92.40;;;;;;5078382;28;20505;-87
2021/01/26 06:20:21;;;;;;;15.60;7.40;;;2.90;92.40;;;;;;5078358;28;20072;-87
2021/01/26 06:22:49;;;;;;;16.50;7.20;;;2.90;92.50;;;;;;5057797;28;20033;-86
2021/01/26 06:25:28;;;;;;;16.23;7.97;;;2.90;92.40;;;;;;5056192;28;20489;-86
2021/01/26 06:28:22;;;;;;;16.15;7.60;;;2.90;92.40;;;;;;5059053;28;20029;-86
2021/01/26 06:30:52;;;;;;;17.10;7.80;;;2.80;92.40;;;;;;5061113;28;20072;-85
2021/01/26 06:33:36;;;;;;;16.90;7.87;;;2.80;92.40;;;;;;5055734;28;20093;-85
2021/01/26 06:36:10;;;;;;;16.67;7.80;;;2.80;92.40;;;;;;5049909;28;20025;-84
2021/01/26 06:38:51;;;;;;;16.00;7.50;;;2.80;92.40;;;;;;5040167;28;20025;-86
2021/01/26 06:41:41;;;;;;;16.77;8.10;;;2.80;92.40;;;;;;5035416;28;20029;-86
2021/01/26 06:44:42;;;;;;;17.30;8.20;;;2.80;92.30;;;;;;5055631;28;20029;-86
2021/01/26 06:47:13;;;;;;;16.40;7.93;;;2.80;92.30;;;;;;5030968;28;20048;-87
2021/01/26 06:49:52;;;;;;;17.00;8.07;;;2.80;92.30;;;;;;5071235;28;20025;-87
2021/01/26 06:52:30;;;;;;;17.38;8.07;;;2.80;92.20;;;;;;5030491;28;20049;-87
2021/01/26 06:55:10;;;;;;;18.20;8.33;;;2.80;92.20;;;;;;5037461;28;20100;-87
2021/01/26 06:58:21;;;;;;;19.30;9.43;;;2.80;92.20;;;;;;5020134;28;20386;-86
2021/01/26 07:01:11;;;;;;;19.50;9.70;;;2.80;92.10;;;;;;5017645;28;20033;-86
2021/01/26 07:03:39;;;;;;;;;;;2.80;92.10;;;;;;5021852;28;20036;-86
2021/01/26 07:06:17;;;;;;;20.70;9.57;;;2.80;92.10;;;;;;5035698;28;19916;-84
2021/01/26 07:08:48;;;;;;;21.43;10.53;;;2.80;92.20;;;;;;5033549;28;20032;-86
2021/01/26 07:11:13;;;;;;;22.13;10.77;;;2.80;92.20;;;;;;5034242;28;20028;-86
2021/01/26 07:14:13;;;;;;;24.13;10.73;;;2.70;92.20;;;;;;5034871;28;20037;-85
2021/01/26 07:16:54;;;;;;;21.87;11.10;;;2.70;92.30;;;;;;5055512;28;20033;-87
2021/01/26 07:19:58;;;;;;;22.57;10.97;;;2.70;92.30;;;;;;5055493;28;20108;-85
2021/01/26 07:22:32;;;;;;;23.23;11.07;;;2.60;92.30;;;;;;5055923;28;20556;-86
2021/01/26 07:25:24;;;;;;;21.00;10.67;;;2.60;92.40;;;;;;5038016;28;20143;-86
2021/01/26 07:28:16;;;;;;;22.73;10.03;;;2.60;92.40;;;;;;5054727;28;20068;-85
2021/01/26 07:30:44;;;;;;;21.97;10.70;;;2.60;92.40;;;;;;5041842;28;20040;-86
2021/01/26 07:33:21;;;;;;;26.17;12.13;;;2.60;92.40;;;;;;5057421;28;20041;-84
2021/01/26 07:35:58;;;;;;;24.70;12.03;;;2.60;92.50;;;;;;5074986;28;20032;-86
2021/01/26 07:38:48;;;;;;;22.57;11.37;;;2.60;92.40;;;;;;5075532;28;20048;-86
2021/01/26 07:41:35;;;;;;;22.77;11.37;;;2.60;92.40;;;;;;5077013;28;20059;-86
2021/01/26 07:44:17;;;;;;;23.60;11.30;;;2.60;92.30;;;;;;5055053;28;20029;-86
2021/01/26 07:46:59;;;;;;;25.00;12.33;;;2.60;92.70;;;;;;5056887;28;20162;-87
2021/01/26 07:49:39;;;;;;;24.57;12.17;;;2.60;92.40;;;;;;5065524;28;20025;-86
2021/01/26 07:52:07;;;;;;;24.50;12.40;;;2.60;92.40;;;;;;5055804;28;20413;-87
2021/01/26 07:54:53;;;;;;;23.83;12.60;;;2.60;92.40;;;;;;5066637;28;20033;-85
2021/01/26 07:57:24;;;;;;;25.03;12.27;;;2.70;92.40;;;;;;5055982;28;20363;-88
2021/01/26 07:59:54;;;;;;;24.13;11.13;;;2.60;92.40;;;;;;5047432;28;20071;-89
2021/01/26 08:02:26;;;;;;;24.33;11.97;;;2.70;92.40;;;;;;5053929;28;20033;-82
2021/01/26 08:04:52;;;;;;;24.30;11.30;;;2.70;92.50;;;;;;5062624;28;20117;-86
2021/01/26 08:07:26;;;;;;;22.77;10.93;;;2.70;92.30;;;;;;5073946;28;20086;-88
2021/01/26 08:09:53;;;;;;;23.07;10.90;;;2.80;92.20;;;;;;5038819;28;20079;-88
2021/01/26 08:12:41;;;;;;;21.47;10.57;;;2.80;92.20;;;;;;5037733;28;20028;-87
2021/01/26 08:15:31;;;;;;;22.50;11.47;;;2.80;92.20;;;;;;5053772;28;20043;-91
2021/01/26 08:17:58;;;;;;;22.20;10.90;;;2.80;92.20;;;;;;5077149;28;20108;-91
2021/01/26 08:20:23;;;;;;;22.07;11.20;;;2.80;92.30;;;;;;5078593;28;20036;-89
2021/01/26 08:23:07;;;;;;;21.67;10.90;;;2.80;92.20;;;;;;5052524;28;20033;-90
2021/01/26 08:25:36;;;;;;;22.03;11.27;;;2.80;92.10;;;;;;5053014;28;20107;-90
2021/01/26 08:28:10;;;;;;;24.13;11.75;;;2.80;92.20;;;;;;5058512;28;20031;-90
2021/01/26 08:30:46;;;;;;;22.90;11.33;;;2.80;92.20;;;;;;5056615;28;20410;-89
2021/01/26 08:33:17;;;;;;;22.93;11.10;;;2.70;92.20;;;;;;5080156;28;20021;-89
2021/01/26 08:35:47;;;;;;;22.10;11.33;;;2.70;92.30;;;;;;5067028;28;20023;-91
2021/01/26 08:38:49;;;;;;;23.13;11.17;;;2.70;92.30;;;;;;5076309;28;20031;-90
2021/01/26 08:41:44;;;;;;;22.47;11.43;;;2.70;92.30;;;;;;5061646;28;20025;-89
2021/01/26 08:44:36;;;;;;;22.07;11.57;;;2.70;92.30;;;;;;5055579;28;20032;-90
2021/01/26 08:47:39;;;;;;;22.03;11.17;;;2.70;92.20;;;;;;5044631;28;20033;-90
2021/01/26 08:50:15;;;;;;;23.40;12.13;;;2.70;92.40;;;;;;5035783;28;20033;-90
2021/01/26 08:52:41;;;;;;;22.30;10.63;;;2.80;92.30;;;;;;5043856;28;20029;-91
2021/01/26 08:55:07;;;;;;;24.47;12.27;;;2.70;92.20;;;;;;5057272;28;20088;-89
2021/01/26 08:57:32;;;;;;;23.60;12.37;;;2.70;92.20;;;;;;5073940;28;20068;-85
2021/01/26 09:00:17;;;;;;;23.37;12.00;;;2.70;92.20;;;;;;5072453;28;20090;-87
2021/01/26 09:02:49;;;;;;;24.53;12.30;;;2.80;92.30;;;;;;5059063;28;20392;-89
2021/01/26 09:05:40;;;;;;;22.03;10.80;;;2.80;92.20;;;;;;5036407;28;20032;-90
2021/01/26 09:08:07;;;;;;;23.33;11.50;;;2.80;92.20;;;;;;5036123;28;20025;-88
2021/01/26 09:10:47;;;;;;;23.27;11.10;;;2.70;92.20;;;;;;5040217;28;20085;-89
2021/01/26 09:13:15;;;;;;;22.67;11.13;;;2.80;92.20;;;;;;5044267;28;20155;-91
2021/01/26 09:15:48;;;;;;;24.03;11.43;;;2.80;92.20;;;;;;5044392;28;20032;-86
2021/01/26 09:18:16;;;;;;;21.43;10.77;;;2.80;92.20;;;;;;5042617;28;20037;-87
2021/01/26 09:20:44;;;;;;;22.83;11.45;;;2.80;92.30;;;;;;5077387;28;20029;-84
2021/01/26 09:23:10;;;;;;;24.43;11.93;;;2.90;92.30;;;;;;5078559;28;20060;-84
2021/01/26 09:25:41;;;;;;;23.97;12.53;;;2.90;92.10;;;;;;5077930;28;20025;-90
2021/01/26 09:28:15;;;;;;;26.83;11.67;;;3.00;92.10;;;;;;5067604;28;20024;-91
2021/01/26 09:30:43;;;;;;;22.40;11.93;;;3.10;91.80;;;;;;5080229;28;20036;-90
2021/01/26 09:33:26;;;;;;;23.50;11.47;;;3.00;91.80;;;;;;5057303;28;20017;-90
2021/01/26 09:36:04;;;;;;;23.23;11.47;;;3.00;91.80;;;;;;5059492;28;20016;-90
2021/01/26 09:38:32;;;;;;;21.90;10.90;;;3.00;91.90;;;;;;5059244;28;20035;-90
2021/01/26 09:41:13;;;;;;;22.50;11.87;;;3.00;91.90;;;;;;5058792;28;20036;-92
2021/01/26 09:43:43;;;;;;;21.70;10.90;;;2.90;91.90;;;;;;5059527;28;20043;-90
2021/01/26 09:46:34;;;;;;;22.87;10.93;;;2.90;91.90;;;;;;5057838;28;20074;-92
2021/01/26 09:49:18;;;;;;;22.47;10.70;;;2.90;92.00;;;;;;5057619;28;20041;-90
2021/01/26 09:51:56;;;;;;;20.47;10.63;;;2.90;92.00;;;;;;5057861;28;20070;-90
2021/01/26 09:54:33;;;;;;;20.17;9.50;;;2.90;92.10;;;;;;5058261;28;20025;-88
2021/01/26 09:57:00;;;;;;;27.77;10.97;;;2.90;92.00;;;;;;5057304;28;20074;-90
2021/01/26 09:59:28;;;;;;;22.07;10.70;;;2.90;92.10;;;;;;5057153;28;20112;-89
2021/01/26 10:01:55;;;;;;;22.88;11.25;;;2.80;92.10;;;;;;5070732;28;20032;-88
2021/01/26 10:04:23;;;;;;;20.23;10.17;;;2.90;92.10;;;;;;5040875;28;20115;-89
2021/01/26 10:06:58;;;;;;;21.63;10.43;;;2.90;92.00;;;;;;5059106;28;20473;-91
2021/01/26 10:09:33;;;;;;;24.10;11.50;;;2.90;92.00;;;;;;5058032;28;20028;-90
2021/01/26 10:12:35;;;;;;;25.10;11.90;;;2.90;92.00;;;;;;5048166;28;20540;-87
2021/01/26 10:15:30;;;;;;;22.67;10.20;;;3.00;92.00;;;;;;5055431;28;20029;-88
2021/01/26 10:17:58;;;;;;;21.60;10.33;;;3.00;91.90;;;;;;5041412;28;20067;-91
2021/01/26 10:20:27;;;;;;;21.40;10.63;;;3.00;91.90;;;;;;5043266;28;20064;-89
2021/01/26 10:23:04;;;;;;;22.40;10.95;;;3.00;91.90;;;;;;5048445;28;20027;-90
2021/01/26 10:25:31;;;;;;;22.33;10.87;;;3.00;91.90;;;;;;5058976;28;20035;-88
2021/01/26 10:28:19;;;;;;;22.73;10.77;;;3.10;91.90;;;;;;5068740;28;20028;-90
2021/01/26 10:30:47;;;;;;;24.20;11.37;;;3.10;91.90;;;;;;5057785;28;20048;-89
2021/01/26 10:33:31;;;;;;;24.03;11.77;;;3.20;91.80;;;;;;5056988;28;20111;-89
2021/01/26 10:36:18;;;;;;;22.33;10.63;;;3.20;92.10;;;;;;5056933;28;20481;-90
2021/01/26 10:38:45;;;;;;;23.40;11.43;;;3.30;91.70;;;;;;5072993;28;20139;-90
2021/01/26 10:41:19;;;;;;;23.43;11.20;;;3.30;91.60;;;;;;5074143;28;20162;-90
2021/01/26 10:43:44;;;;;;;23.40;11.43;;;3.40;91.60;;;;;;5080831;28;20027;-88
2021/01/26 10:46:16;;;;;;;21.80;11.23;;;3.40;91.60;;;;;;5062640;28;20031;-89
2021/01/26 10:48:47;;;;;;;22.27;11.20;;;3.40;91.50;;;;;;5073531;28;20110;-89
2021/01/26 10:51:35;;;;;;;23.27;11.50;;;3.40;91.60;;;;;;5089006;28;20032;-90
2021/01/26 10:54:01;;;;;;;23.60;10.67;;;3.50;91.50;;;;;;5057170;28;20500;-91
2021/01/26 10:56:27;;;;;;;22.60;10.20;;;3.50;91.40;;;;;;5057884;28;20282;-90
2021/01/26 10:58:53;;;;;;;19.83;9.60;;;3.60;91.30;;;;;;5058159;28;20055;-91
2021/01/26 11:01:20;;;;;;;21.20;10.30;;;3.60;91.30;;;;;;5058782;28;20032;-86
2021/01/26 11:03:47;;;;;;;19.97;9.77;;;3.70;91.40;;;;;;5057456;28;20029;-86
2021/01/26 11:06:13;;;;;;;22.10;9.80;;;3.70;91.20;;;;;;5056509;28;20028;-84
2021/01/26 11:08:39;;;;;;;19.67;9.80;;;3.70;91.00;;;;;;5058654;28;20056;-90
2021/01/26 11:11:05;;;;;;;20.30;9.53;;;3.80;91.00;;;;;;5057282;28;20020;-91
2021/01/26 11:13:31;;;;;;;20.37;9.23;;;3.90;91.00;;;;;;5056581;28;20493;-90
2021/01/26 11:15:56;;;;;;;19.97;9.73;;;3.80;90.70;;;;;;5056655;28;20032;-91
2021/01/26 11:18:22;;;;;;;19.60;10.10;;;3.80;90.70;;;;;;5056648;28;20059;-89
2021/01/26 11:20:48;;;;;;;22.03;10.27;;;3.90;90.80;;;;;;5059796;28;20024;-90
2021/01/26 11:23:14;;;;;;;23.33;10.17;;;3.90;90.80;;;;;;5068271;28;20029;-90
2021/01/26 11:25:39;;;;;;;19.60;9.40;;;4.00;90.70;;;;;;5057568;28;20102;-91
2021/01/26 11:28:06;;;;;;;19.73;9.37;;;4.00;90.70;;;;;;5063381;28;20111;-90
2021/01/26 11:30:32;;;;;;;20.90;10.10;;;4.00;90.50;;;;;;5039254;28;20053;-88
2021/01/26 11:32:58;;;;;;;18.30;8.87;;;4.10;90.50;;;;;;5057031;28;20031;-89
2021/01/26 11:35:26;;;;;;;19.10;8.10;;;4.10;90.60;;;;;;5050807;28;20094;-88
2021/01/26 11:37:53;;;;;;;18.43;8.87;;;4.10;90.40;;;;;;5051222;28;20013;-84
2021/01/26 11:40:19;;;;;;;17.90;8.97;;;4.20;90.50;;;;;;5049152;28;20029;-85
2021/01/26 11:42:45;;;;;;;19.67;8.90;;;4.20;90.30;;;;;;5063301;28;20029;-86
2021/01/26 11:45:14;;;;;;;21.23;10.03;;;4.20;90.40;;;;;;5045606;28;20474;-84
2021/01/26 11:47:40;;;;;;;20.75;9.77;;;4.20;90.20;;;;;;5036417;28;20043;-81
2021/01/26 11:50:11;;;;;;;19.07;9.20;;;4.20;90.30;;;;;;5067397;28;20032;-78
2021/01/26 11:52:37;;;;;;;19.43;9.50;;;4.30;90.30;;;;;;5072680;28;20516;-78
2021/01/26 11:55:14;;;;;;;20.17;9.10;;;4.30;90.30;;;;;;5077605;28;20167;-84
2021/01/26 11:57:40;;;;;;;22.00;9.93;;;4.30;90.20;;;;;;5061419;28;20028;-85
2021/01/26 12:00:10;;;;;;;19.27;9.07;;;4.40;90.20;;;;;;5084023;28;20366;-84
2021/01/26 12:02:35;;;;;;;18.30;9.17;;;4.40;90.20;;;;;;5073190;28;20028;-85
2021/01/26 12:05:03;;;;;;;20.73;9.60;;;4.40;90.10;;;;;;5046453;28;20367;-84
2021/01/26 12:07:28;;;;;;;20.17;9.93;;;4.40;89.90;;;;;;5048822;28;20564;-84
2021/01/26 12:09:54;;;;;;;20.43;10.43;;;4.30;90.00;;;;;;5057920;28;20036;-85
2021/01/26 12:12:19;;;;;;;19.47;9.90;;;4.30;90.00;;;;;;5064848;28;20013;-84
2021/01/26 12:14:46;;;;;;;21.57;9.77;;;4.30;90.10;;;;;;5046444;28;20561;-83
2021/01/26 12:17:11;;;;;;;20.37;9.00;;;4.30;90.10;;;;;;5059540;28;20055;-83
2021/01/26 12:19:37;;;;;;;18.60;9.17;;;4.30;90.30;;;;;;5083641;28;20029;-82
2021/01/26 12:22:02;;;;;;;19.77;10.00;;;4.20;90.20;;;;;;5083904;28;20033;-84
2021/01/26 12:24:28;;;;;;;23.43;9.90;;;4.20;90.30;;;;;;5067610;28;20469;-85
2021/01/26 12:26:57;;;;;;;23.07;9.33;;;4.30;90.30;;;;;;5057874;28;20044;-84
2021/01/26 12:29:22;;;;;;;19.45;9.30;;;4.30;90.30;;;;;;5065115;28;20029;-84
2021/01/26 12:31:49;;;;;;;19.57;8.80;;;4.30;90.30;;;;;;5066051;28;20091;-84
2021/01/26 12:34:15;;;;;;;21.27;9.87;;;4.30;90.30;;;;;;5047190;28;20021;-85
2021/01/26 12:36:41;;;;;;;20.83;10.40;;;4.30;90.30;;;;;;5055188;28;20031;-84
2021/01/26 12:39:06;;;;;;;22.17;9.77;;;4.30;90.10;;;;;;5047093;28;20088;-84
2021/01/26 12:41:32;;;;;;;20.37;9.47;;;4.30;90.10;;;;;;5075363;28;20029;-81
2021/01/26 12:43:58;;;;;;;21.60;10.03;;;4.30;90.10;;;;;;5069099;28;20027;-82
2021/01/26 12:46:25;;;;;;;22.93;9.70;;;4.30;90.20;;;;;;5068441;28;20024;-81
2021/01/26 12:48:51;;;;;;;19.73;9.93;;;4.40;90.30;;;;;;5082204;28;20426;-80
2021/01/26 12:51:16;;;;;;;19.90;9.73;;;4.40;90.20;;;;;;5056710;28;20112;-81
2021/01/26 12:53:42;;;;;;;20.53;9.87;;;4.40;90.10;;;;;;5061591;28;20027;-82
2021/01/26 12:56:07;;;;;;;32.70;12.10;;;4.40;90.20;;;;;;5048890;28;20020;-81
2021/01/26 12:58:33;;;;;;;23.07;11.70;;;4.40;90.20;;;;;;5062997;28;20028;-82
2021/01/26 13:00:58;;;;;;;23.20;10.30;;;4.40;90.20;;;;;;5061472;28;20421;-84
2021/01/26 13:03:24;;;;;;;19.00;9.67;;;4.50;90.10;;;;;;5079954;28;20040;-81
2021/01/26 13:05:50;;;;;;;30.40;14.77;;;4.50;89.90;;;;;;5074349;28;20048;-80
2021/01/26 13:08:15;;;;;;;33.03;15.07;;;4.50;90.00;;;;;;5042605;28;20474;-81
2021/01/26 13:10:44;;;;;;;31.30;15.97;;;4.50;90.10;;;;;;5050038;28;20063;-80
2021/01/26 13:13:09;;;;;;;22.17;10.70;;;4.50;89.90;;;;;;5079763;28;20450;-80
2021/01/26 13:15:35;;;;;;;18.80;9.47;;;4.50;89.90;;;;;;5061675;28;20111;-80